createdAt,value
2022-09-04T00:00:18.865Z,100487.31
2022-09-04T00:02:58.726Z,100486.38
2022-09-04T00:05:37.507Z,100490.38
2022-09-04T00:08:12.380Z,100492.50
2022-09-04T00:11:16.673Z,100485.28
2022-09-04T00:13:51.727Z,100493.25
2022-09-04T00:16:23.101Z,100495.72
2022-09-04T00:18:56.828Z,100494.91
2022-09-04T00:21:30.900Z,100501.84
2022-09-04T00:24:05.663Z,100503.34
2022-09-04T00:26:56.854Z,100498.50
2022-09-04T00:30:01.880Z,100503.34
2022-09-04T00:32:39.877Z,100500.56
2022-09-04T00:35:24.200Z,100503.00
2022-09-04T00:38:21.552Z,100496.56
2022-09-04T00:41:11.404Z,100500.41
2022-09-04T00:43:43.968Z,100508.50
2022-09-04T00:46:48.550Z,100511.59
2022-09-04T00:49:38.103Z,100511.59
2022-09-04T00:52:35.337Z,100504.22
2022-09-04T00:55:25.156Z,100509.16
2022-09-04T00:58:09.140Z,100506.94
2022-09-04T01:00:36.408Z,100514.31
2022-09-04T01:03:18.376Z,100516.84
2022-09-04T01:06:13.891Z,100518.34
2022-09-04T01:09:14.236Z,100522.50
2022-09-04T01:11:50.595Z,100524.81
2022-09-04T01:14:38.352Z,100528.03
2022-09-04T01:17:24.179Z,100536.34
2022-09-04T01:20:13.023Z,100531.00
2022-09-04T01:22:59.607Z,100531.94
2022-09-04T01:26:04.053Z,100531.84
2022-09-04T01:28:48.008Z,100537.00
2022-09-04T01:31:39.610Z,100526.94
2022-09-04T01:34:25.350Z,100536.75
2022-09-04T01:37:14.693Z,100534.53
2022-09-04T01:39:46.775Z,100538.47
2022-09-04T01:42:43.285Z,100545.34
2022-09-04T01:45:10.965Z,100546.72
2022-09-04T01:47:46.741Z,100544.09
2022-09-04T01:50:20.540Z,100549.53
2022-09-04T01:53:12.656Z,100535.75
2022-09-04T01:55:55.806Z,100541.22
2022-09-04T01:58:35.390Z,100535.75
2022-09-04T02:01:16.416Z,100533.78
2022-09-04T02:03:56.315Z,100548.53
2022-09-04T02:06:44.991Z,100548.88
2022-09-04T02:09:33.384Z,100542.53
2022-09-04T02:12:21.085Z,100546.38
2022-09-04T02:15:29.494Z,100546.88
2022-09-04T02:18:19.941Z,100547.22
2022-09-04T02:20:59.884Z,100543.94
2022-09-04T02:23:37.648Z,100546.28
2022-09-04T02:26:17.125Z,100545.69
2022-09-04T02:28:58.095Z,100535.03
2022-09-04T02:31:33.537Z,100545.91
2022-09-04T02:34:15.395Z,100541.16
2022-09-04T02:37:08.659Z,100539.50
2022-09-04T02:39:49.153Z,100537.97
2022-09-04T02:42:41.094Z,100546.06
2022-09-04T02:45:07.647Z,100551.50
2022-09-04T02:48:01.478Z,100551.25
2022-09-04T02:50:46.206Z,100551.44
2022-09-04T02:53:37.845Z,100558.53
2022-09-04T02:56:21.076Z,100559.13
2022-09-04T02:58:54.095Z,100565.44
2022-09-04T03:01:37.590Z,100561.84
2022-09-04T03:04:19.594Z,100570.13
2022-09-04T03:06:54.239Z,100565.97
2022-09-04T03:09:32.311Z,100565.47
2022-09-04T03:12:23.254Z,100562.88
2022-09-04T03:15:16.524Z,100571.44
2022-09-04T03:17:58.726Z,100573.56
2022-09-04T03:20:28.878Z,100584.16
2022-09-04T03:23:04.485Z,100573.13
2022-09-04T03:25:59.043Z,100585.66
2022-09-04T03:28:35.969Z,100577.59
2022-09-04T03:31:31.467Z,100586.78
2022-09-04T03:34:19.938Z,100588.44
2022-09-04T03:37:07.469Z,100586.22
2022-09-04T03:39:53.977Z,100584.75
2022-09-04T03:42:43.512Z,100585.25
2022-09-04T03:45:37.687Z,100590.63
2022-09-04T03:48:23.209Z,100586.50
2022-09-04T03:51:10.868Z,100586.41
2022-09-04T03:53:44.044Z,100586.28
2022-09-04T03:56:31.830Z,100591.22
2022-09-04T03:59:04.175Z,100600.03
2022-09-04T04:01:52.013Z,100598.72
2022-09-04T04:04:36.052Z,100588.03
2022-09-04T04:07:19.840Z,100599.94
2022-09-04T04:10:20.977Z,100601.28
2022-09-04T04:13:12.322Z,100602.75
2022-09-04T04:16:28.121Z,100603.22
2022-09-04T04:19:33.724Z,100604.88
2022-09-04T04:22:19.235Z,100613.22
2022-09-04T04:25:33.880Z,100616.25
2022-09-04T04:28:19.879Z,100617.63
2022-09-04T04:30:57.323Z,100619.41
2022-09-04T04:33:42.373Z,100620.81
2022-09-04T04:36:24.607Z,100632.34
2022-09-04T04:39:04.646Z,100629.56
2022-09-04T04:42:06.167Z,100632.72
2022-09-04T04:45:14.009Z,100634.72
2022-09-04T04:48:19.776Z,100638.97
2022-09-04T04:51:32.115Z,100637.34
2022-09-04T04:54:27.573Z,100643.59
2022-09-04T04:57:26.815Z,100656.03
2022-09-04T04:59:55.761Z,100658.34
2022-09-04T05:02:31.052Z,100656.19
2022-09-04T05:05:19.493Z,100660.25
2022-09-04T05:08:22.460Z,100669.56
2022-09-04T05:10:56.372Z,100669.13
2022-09-04T05:13:33.139Z,100680.53
2022-09-04T05:16:19.063Z,100678.44
2022-09-04T05:19:16.482Z,100677.69
2022-09-04T05:21:50.032Z,100680.84
2022-09-04T05:24:35.100Z,100680.72
2022-09-04T05:27:31.283Z,100689.97
2022-09-04T05:30:09.102Z,100694.56
2022-09-04T05:32:48.942Z,100695.13
2022-09-04T05:35:23.209Z,100697.34
2022-09-04T05:38:16.101Z,100711.94
2022-09-04T05:41:06.200Z,100714.03
2022-09-04T05:44:08.142Z,100714.06
2022-09-04T05:46:51.742Z,100715.97
2022-09-04T05:49:27.661Z,100718.66
2022-09-04T05:52:09.048Z,100726.41
2022-09-04T05:55:10.621Z,100731.66
2022-09-04T05:57:56.460Z,100727.63
2022-09-04T06:00:23.153Z,100735.63
2022-09-04T06:03:30.177Z,100742.38
2022-09-04T06:06:06.786Z,100736.84
2022-09-04T06:08:51.788Z,100736.00
2022-09-04T06:11:51.410Z,100749.19
2022-09-04T06:14:49.348Z,100743.97
2022-09-04T06:17:53.567Z,100749.25
2022-09-04T06:20:40.745Z,100757.03
2022-09-04T06:23:18.261Z,100761.84
2022-09-04T06:26:06.486Z,100760.06
2022-09-04T06:28:43.672Z,100763.34
2022-09-04T06:31:18.753Z,100759.41
2022-09-04T06:33:53.052Z,100760.97
2022-09-04T06:36:40.790Z,100761.06
2022-09-04T06:39:30.119Z,100765.50
2022-09-04T06:41:56.671Z,100763.81
2022-09-04T06:44:41.078Z,100767.78
2022-09-04T06:47:31.219Z,100769.09
2022-09-04T06:50:08.756Z,100781.22
2022-09-04T06:53:04.860Z,100780.97
2022-09-04T06:55:50.033Z,100793.38
2022-09-04T06:58:47.800Z,100791.28
2022-09-04T07:01:40.450Z,100794.06
2022-09-04T07:04:51.356Z,100793.94
2022-09-04T07:07:27.465Z,100789.38
2022-09-04T07:10:01.053Z,100796.16
2022-09-04T07:12:50.207Z,100806.25
2022-09-04T07:15:49.639Z,100807.44
2022-09-04T07:18:54.416Z,100801.13
2022-09-04T07:21:49.423Z,100797.78
2022-09-04T07:24:49.384Z,100800.59
2022-09-04T07:27:36.151Z,100799.50
2022-09-04T07:30:13.515Z,100811.78
2022-09-04T07:32:56.352Z,100816.53
2022-09-04T07:35:36.908Z,100813.66
2022-09-04T07:38:24.697Z,100816.00
2022-09-04T07:40:58.790Z,100818.47
2022-09-04T07:43:54.466Z,100829.81
2022-09-04T07:46:33.520Z,100831.38
2022-09-04T07:49:19.065Z,100829.84
2022-09-04T07:51:54.848Z,100837.81
2022-09-04T07:54:50.678Z,100830.22
2022-09-04T07:57:32.023Z,100832.31
2022-09-04T08:00:14.042Z,100836.75
2022-09-04T08:03:02.794Z,100833.03
2022-09-04T08:05:33.681Z,100838.09
2022-09-04T08:08:03.726Z,100841.84
2022-09-04T08:11:00.644Z,100850.50
2022-09-04T08:13:35.333Z,100851.97
2022-09-04T08:16:24.029Z,100857.53
2022-09-04T08:18:57.628Z,100857.97
2022-09-04T08:21:35.582Z,100864.75
2022-09-04T08:24:20.213Z,100859.13
2022-09-04T08:27:02.997Z,100865.94
2022-09-04T08:29:50.555Z,100875.81
2022-09-04T08:32:47.276Z,100869.25
2022-09-04T08:35:19.360Z,100880.22
2022-09-04T08:37:54.424Z,100886.25
2022-09-04T08:40:53.509Z,100879.03
2022-09-04T08:43:45.806Z,100885.13
2022-09-04T08:46:34.595Z,100890.00
2022-09-04T08:49:32.002Z,100892.44
2022-09-04T08:52:25.662Z,100896.94
2022-09-04T08:55:24.349Z,100905.72
2022-09-04T08:58:24.226Z,100900.47
2022-09-04T09:00:57.072Z,100899.19
2022-09-04T09:03:50.966Z,100906.09
2022-09-04T09:06:38.350Z,100902.28
2022-09-04T09:09:46.614Z,100902.50
2022-09-04T09:12:54.011Z,100899.44
2022-09-04T09:15:51.131Z,100896.00
2022-09-04T09:18:54.764Z,100898.06
2022-09-04T09:21:44.773Z,100894.59
2022-09-04T09:24:26.709Z,100895.59
2022-09-04T09:27:11.713Z,100898.94
2022-09-04T09:29:42.278Z,100905.13
2022-09-04T09:32:40.557Z,100902.91
2022-09-04T09:35:41.801Z,100896.84
2022-09-04T09:38:34.800Z,100892.03
2022-09-04T09:41:39.195Z,100894.72
2022-09-04T09:44:27.023Z,100899.63
2022-09-04T09:47:24.934Z,100905.22
2022-09-04T09:50:22.706Z,100895.44
2022-09-04T09:53:14.431Z,100885.34
2022-09-04T09:56:13.708Z,100888.72
2022-09-04T09:59:18.390Z,100883.53
2022-09-04T10:02:22.839Z,100877.16
2022-09-04T10:05:19.658Z,100879.69
2022-09-04T10:07:57.912Z,100872.38
2022-09-04T10:11:02.840Z,100877.22
2022-09-04T10:13:51.096Z,100869.75
2022-09-04T10:16:36.097Z,100871.91
2022-09-04T10:19:20.653Z,100875.84
2022-09-04T10:22:11.701Z,100872.00
2022-09-04T10:25:07.396Z,100866.16
2022-09-04T10:27:57.221Z,100868.13
2022-09-04T10:30:24.551Z,100877.53
2022-09-04T10:33:27.172Z,100873.03
2022-09-04T10:36:30.832Z,100869.81
2022-09-04T10:39:29.844Z,100878.22
2022-09-04T10:42:11.141Z,100874.50
2022-09-04T10:44:48.439Z,100864.81
2022-09-04T10:47:38.075Z,100869.63
2022-09-04T10:50:26.670Z,100867.56
2022-09-04T10:53:03.013Z,100864.25
2022-09-04T10:55:43.723Z,100858.06
2022-09-04T10:58:58.059Z,100868.56
2022-09-04T11:01:36.917Z,100864.03
2022-09-04T11:04:22.444Z,100854.50
2022-09-04T11:07:11.329Z,100856.75
2022-09-04T11:10:05.460Z,100856.59
2022-09-04T11:12:41.779Z,100871.00
2022-09-04T11:15:26.590Z,100854.31
2022-09-04T11:17:59.013Z,100854.31
2022-09-04T11:21:02.947Z,100862.41
2022-09-04T11:23:48.488Z,100857.06
2022-09-04T11:26:39.910Z,100852.56
2022-09-04T11:29:24.752Z,100853.50
2022-09-04T11:32:24.037Z,100846.00
2022-09-04T11:35:19.238Z,100851.47
2022-09-04T11:38:43.597Z,100844.88
2022-09-04T11:41:28.970Z,100843.72
2022-09-04T11:44:25.137Z,100844.06
2022-09-04T11:47:12.129Z,100850.22
2022-09-04T11:49:50.943Z,100840.19
2022-09-04T11:52:35.775Z,100831.75
2022-09-04T11:55:20.824Z,100846.81
2022-09-04T11:58:08.441Z,100840.16
2022-09-04T12:00:58.307Z,100842.28
2022-09-04T12:03:49.419Z,100850.19
2022-09-04T12:06:35.297Z,100847.75
2022-09-04T12:09:34.595Z,100851.34
2022-09-04T12:12:16.478Z,100849.56
2022-09-04T12:15:07.349Z,100843.41
2022-09-04T12:18:09.763Z,100848.09
2022-09-04T12:21:18.135Z,100845.53
2022-09-04T12:24:04.822Z,100842.13
2022-09-04T12:27:11.488Z,100846.94
2022-09-04T12:29:59.803Z,100846.34
2022-09-04T12:32:35.790Z,100839.22
2022-09-04T12:35:32.010Z,100842.44
2022-09-04T12:38:24.442Z,100840.94
2022-09-04T12:41:17.800Z,100838.06
2022-09-04T12:44:13.004Z,100841.13
2022-09-04T12:46:55.865Z,100837.72
2022-09-04T12:49:40.570Z,100841.63
2022-09-04T12:52:36.518Z,100841.13
2022-09-04T12:55:15.815Z,100843.72
2022-09-04T12:57:57.357Z,100844.69
2022-09-04T13:00:42.036Z,100850.19
2022-09-04T13:03:28.541Z,100846.94
2022-09-04T13:06:14.230Z,100852.47
2022-09-04T13:09:12.878Z,100851.66
2022-09-04T13:12:13.454Z,100845.97
2022-09-04T13:15:11.098Z,100850.47
2022-09-04T13:17:58.187Z,100849.19
2022-09-04T13:20:40.156Z,100849.47
2022-09-04T13:23:27.593Z,100851.13
2022-09-04T13:26:34.318Z,100855.34
2022-09-04T13:29:51.444Z,100852.25
2022-09-04T13:32:35.362Z,100850.31
2022-09-04T13:35:31.305Z,100847.69
2022-09-04T13:38:18.761Z,100846.03
2022-09-04T13:41:19.385Z,100845.75
2022-09-04T13:43:46.011Z,100851.16
2022-09-04T13:46:20.555Z,100845.41
2022-09-04T13:48:52.841Z,100845.91
2022-09-04T13:51:32.918Z,100843.31
2022-09-04T13:54:05.057Z,100837.03
2022-09-04T13:57:04.522Z,100831.66
2022-09-04T13:59:31.907Z,100831.34
2022-09-04T14:02:04.461Z,100833.25
2022-09-04T14:04:36.555Z,100834.06
2022-09-04T14:07:11.565Z,100827.06
2022-09-04T14:09:43.826Z,100823.91
2022-09-04T14:12:48.702Z,100826.28
2022-09-04T14:15:32.817Z,100821.78
2022-09-04T14:18:27.397Z,100816.41
2022-09-04T14:21:03.481Z,100823.56
2022-09-04T14:23:30.199Z,100828.06
2022-09-04T14:26:12.462Z,100827.00
2022-09-04T14:28:52.640Z,100830.59
2022-09-04T14:31:32.773Z,100832.66
2022-09-04T14:34:15.978Z,100832.16
2022-09-04T14:37:01.289Z,100842.16
2022-09-04T14:39:37.367Z,100832.13
2022-09-04T14:42:22.145Z,100835.53
2022-09-04T14:45:01.591Z,100837.56
2022-09-04T14:47:45.077Z,100836.25
2022-09-04T14:50:14.878Z,100842.88
2022-09-04T14:52:43.403Z,100837.00
2022-09-04T14:55:16.952Z,100832.19
2022-09-04T14:57:59.873Z,100844.69
2022-09-04T15:00:29.217Z,100838.06
2022-09-04T15:03:05.312Z,100838.44
2022-09-04T15:05:37.175Z,100837.13
2022-09-04T15:08:07.836Z,100830.06
2022-09-04T15:10:49.806Z,100834.50
2022-09-04T15:13:51.653Z,100830.13
2022-09-04T15:16:44.273Z,100828.69
2022-09-04T15:19:32.621Z,100823.94
2022-09-04T15:22:08.373Z,100824.28
2022-09-04T15:24:48.314Z,100823.97
2022-09-04T15:27:23.580Z,100819.06
2022-09-04T15:29:53.285Z,100825.91
2022-09-04T15:32:23.486Z,100821.13
2022-09-04T15:35:05.668Z,100815.78
2022-09-04T15:37:33.816Z,100817.47
2022-09-04T15:40:12.768Z,100820.00
2022-09-04T15:42:46.694Z,100819.88
2022-09-04T15:45:23.489Z,100822.72
2022-09-04T15:48:29.432Z,100818.25
2022-09-04T15:51:10.072Z,100808.69
2022-09-04T15:53:40.619Z,100814.06
2022-09-04T15:56:29.383Z,100807.88
2022-09-04T15:59:36.426Z,100808.25
2022-09-04T16:02:20.654Z,100801.38
2022-09-04T16:04:50.888Z,100808.63
2022-09-04T16:07:36.715Z,100803.81
2022-09-04T16:10:21.501Z,100799.97
2022-09-04T16:12:56.735Z,100808.09
2022-09-04T16:15:30.532Z,100804.03
2022-09-04T16:18:02.396Z,100795.84
2022-09-04T16:21:00.304Z,100804.13
2022-09-04T16:23:33.668Z,100795.69
2022-09-04T16:26:10.573Z,100796.06
2022-09-04T16:28:51.322Z,100801.88
2022-09-04T16:31:34.646Z,100795.59
2022-09-04T16:34:13.373Z,100803.69
2022-09-04T16:36:49.134Z,100805.22
2022-09-04T16:39:32.765Z,100804.72
2022-09-04T16:42:10.260Z,100800.19
2022-09-04T16:44:45.392Z,100791.16
2022-09-04T16:47:18.604Z,100794.47
2022-09-04T16:50:18.025Z,100791.16
2022-09-04T16:52:53.877Z,100789.63
2022-09-04T16:56:15.048Z,100788.59
2022-09-04T16:58:56.517Z,100785.19
2022-09-04T17:01:46.655Z,100775.75
2022-09-04T17:04:14.504Z,100783.56
2022-09-04T17:07:08.627Z,100785.75
2022-09-04T17:09:58.657Z,100784.28
2022-09-04T17:12:42.011Z,100778.94
2022-09-04T17:15:25.518Z,100783.44
2022-09-04T17:17:54.332Z,100775.13
2022-09-04T17:21:44.716Z,100784.09
2022-09-04T17:29:00.868Z,100784.25
2022-09-04T17:29:18.799Z,100780.56
2022-09-04T17:29:41.694Z,100780.72
2022-09-04T17:35:38.219Z,100781.72
2022-09-04T17:40:43.286Z,100783.81
2022-09-04T17:40:48.034Z,100784.69
2022-09-04T17:41:47.350Z,100788.84
2022-09-04T17:44:27.346Z,100778.28
2022-09-04T17:47:04.529Z,100780.66
2022-09-04T17:49:34.850Z,100786.16
2022-09-04T17:52:08.633Z,100790.16
2022-09-04T17:54:41.527Z,100791.13
2022-09-04T17:57:18.544Z,100792.94
2022-09-04T17:59:56.747Z,100790.03
2022-09-04T18:02:44.721Z,100788.25
2022-09-04T18:05:28.793Z,100792.94
2022-09-04T18:08:16.358Z,100798.25
2022-09-04T18:10:45.988Z,100804.75
2022-09-04T18:13:36.885Z,100805.41
2022-09-04T18:16:26.188Z,100817.50
2022-09-04T18:18:55.273Z,100812.00
2022-09-04T18:21:28.847Z,100807.16
2022-09-04T18:24:17.724Z,100819.63
2022-09-04T18:27:15.084Z,100820.75
2022-09-04T18:34:48.812Z,100825.44
2022-09-04T18:37:18.211Z,100829.31
2022-09-04T18:37:26.561Z,100826.41
2022-09-04T18:38:46.756Z,100832.09
2022-09-04T18:47:26.698Z,100837.25
2022-09-04T18:50:33.083Z,100841.78
2022-09-04T18:50:50.303Z,100837.75
2022-09-04T18:53:35.500Z,100845.84
2022-09-04T18:56:20.225Z,100841.47
2022-09-04T18:59:14.598Z,100845.84
2022-09-04T19:01:58.397Z,100851.34
2022-09-04T19:04:31.313Z,100853.91
2022-09-04T19:07:19.083Z,100858.78
2022-09-04T19:10:15.781Z,100853.59
2022-09-04T19:12:53.765Z,100853.13
2022-09-04T19:15:46.030Z,100855.69
2022-09-04T19:18:56.021Z,100866.50
2022-09-04T19:21:36.172Z,100862.16
2022-09-04T19:24:34.271Z,100867.31
2022-09-04T19:27:25.079Z,100869.09
2022-09-04T19:30:17.568Z,100868.59
2022-09-04T19:33:08.561Z,100866.00
2022-09-04T19:35:46.587Z,100861.66
2022-09-04T19:45:55.600Z,100860.50
2022-09-04T19:46:05.990Z,100864.22
2022-09-04T19:46:06.214Z,100862.44
2022-09-04T19:47:45.176Z,100864.69
2022-09-04T19:53:04.822Z,100858.53
2022-09-04T19:53:40.491Z,100864.34
2022-09-04T19:56:17.203Z,100860.44
2022-09-04T19:58:56.905Z,100856.91
2022-09-04T20:01:29.213Z,100854.16
2022-09-04T20:04:08.573Z,100857.09
2022-09-04T20:06:50.833Z,100856.47
2022-09-04T20:09:26.371Z,100853.50
2022-09-04T20:12:03.862Z,100863.84
2022-09-04T20:14:45.797Z,100871.75
2022-09-04T20:17:40.713Z,100861.41
2022-09-04T20:20:30.150Z,100865.31
2022-09-04T20:23:34.932Z,100861.28
2022-09-04T20:26:03.577Z,100853.78
2022-09-04T20:28:56.176Z,100858.28
2022-09-04T20:31:36.708Z,100861.78
2022-09-04T20:34:29.593Z,100863.63
2022-09-04T20:37:22.544Z,100860.53
2022-09-04T20:40:04.888Z,100863.44
2022-09-04T20:42:42.460Z,100867.94
2022-09-04T20:48:49.718Z,100857.16
2022-09-04T20:52:53.305Z,100855.72
2022-09-04T20:53:05.873Z,100861.53
2022-09-04T20:54:38.893Z,100855.84
2022-09-04T21:03:09.195Z,100863.72
2022-09-04T21:03:09.791Z,100860.19
2022-09-04T21:03:20.993Z,100863.00
2022-09-04T21:06:25.948Z,100865.78
2022-09-04T21:08:52.513Z,100863.53
2022-09-04T21:11:52.056Z,100867.13
2022-09-04T21:14:39.790Z,100869.13
2022-09-04T21:17:35.995Z,100871.06
2022-09-04T21:20:22.616Z,100873.56
2022-09-04T21:23:24.199Z,100869.88
2022-09-04T21:26:24.292Z,100886.53
2022-09-04T21:29:21.616Z,100879.44
2022-09-04T21:32:00.590Z,100883.69
2022-09-04T21:35:10.096Z,100887.31
2022-09-04T21:37:45.687Z,100896.88
2022-09-04T21:40:42.248Z,100905.81
2022-09-04T21:43:48.388Z,100902.25
2022-09-04T21:46:41.298Z,100912.09
2022-09-04T21:49:26.301Z,100915.03
2022-09-04T21:52:21.475Z,100915.59
2022-09-04T21:59:13.604Z,100919.63
2022-09-04T22:02:32.574Z,100913.66
2022-09-04T22:02:35.824Z,100917.28
2022-09-04T22:04:28.997Z,100918.81
2022-09-04T22:08:54.695Z,100912.78
2022-09-04T22:13:38.391Z,100913.66
2022-09-04T22:13:46.657Z,100914.66
2022-09-04T22:15:58.247Z,100913.84
2022-09-04T22:18:53.501Z,100911.22
2022-09-04T22:21:29.634Z,100916.22
2022-09-04T22:24:23.896Z,100916.66
2022-09-04T22:27:11.905Z,100921.50
2022-09-04T22:30:15.616Z,100930.22
2022-09-04T22:33:16.151Z,100920.22
2022-09-04T22:36:18.733Z,100920.81
2022-09-04T22:39:31.438Z,100919.94
2022-09-04T22:42:24.469Z,100917.19
2022-09-04T22:45:12.700Z,100918.00
2022-09-04T22:48:17.225Z,100923.03
2022-09-04T22:51:09.137Z,100917.06
2022-09-04T22:54:06.462Z,100918.38
2022-09-04T22:56:46.829Z,100918.97
2022-09-04T22:59:31.961Z,100932.34
2022-09-04T23:07:28.005Z,100926.88
2022-09-04T23:13:56.670Z,100934.28
2022-09-04T23:13:57.901Z,100939.44
2022-09-04T23:15:30.671Z,100927.38
2022-09-04T23:19:01.796Z,100929.78
2022-09-04T23:26:34.980Z,100936.19
2022-09-04T23:26:58.514Z,100930.41
2022-09-04T23:27:28.825Z,100939.13
2022-09-04T23:30:10.371Z,100938.00
2022-09-04T23:32:50.755Z,100932.66
2022-09-04T23:35:46.238Z,100933.69
2022-09-04T23:38:27.749Z,100926.28
2022-09-04T23:41:03.898Z,100927.41
2022-09-04T23:43:46.741Z,100934.81
2022-09-04T23:46:42.803Z,100927.22
2022-09-04T23:49:37.632Z,100927.50
2022-09-04T23:52:14.776Z,100928.41
2022-09-04T23:54:53.916Z,100929.53
2022-09-04T23:57:41.971Z,100930.47
